CYYC

Calgary International Airport

Calgary, Alberta, Canada
METAR CYYC 172200Z 04007KT 360V080 30SM FEW086 BKN260 31/10 A2999 RMK CU1CI6 CU TR SLP140 DENSITY ALT 6200FT
Observed Flight Rules
Jul-17 @ 22:00 UTC (56 minutes ago) Visual Flight Rules
Wind Visibility Clouds
40° at 7 knots 30 miles
  • Few at 8,600' AGL
  • Broken at 26,000' AGL
Temperatures Readings
Current 31°C / 88°F
Dewpoint 10°C / 50°F
Humidity 27%
Altimeter 29.99" Hg
Pressure 1014 hPa
Elevation 1084
METAR CYYC 172200Z 04007KT 360V080 30SM FEW086 BKN260 31/10 A2999 RMK CU1CI6 CU TR SLP140 DENSITY ALT 6200FT
Observed Flight Rules
Jul-17 @ 22:00 UTC
(56 minutes ago)
VFR
Wind Visibility
40° at 7 knots 30 miles
Clouds
  • Few at 8,600' AGL
  • Broken at 26,000' AGL
Temperature Dewpoint
31°C / 88°F 10°C / 50°F
Humidity Altimeter Pressure
27% 29.99" Hg 1014 hPa